Time,TemperatureF,DewpointF,PressureIn,WindDirection,WindDirectionDegrees,WindSpeedMPH,WindSpeedGustMPH,Humidity,HourlyPrecipIn,Conditions,Clouds,dailyrainin,SoftwareType,DateUTC
2013-03-01 00:00:00,32.4,30.3,29.96,NNW,331,0.0,5.0,92,0.00,,---,0.16,VWS V14.00,2013-03-01 05:00:00,
2013-03-01 00:01:00,32.3,30.2,29.96,NNW,331,0.0,2.0,92,0.00,,---,0.00,VWS V14.00,2013-03-01 05:01:00,
2013-03-01 00:06:00,32.3,30.2,29.96,NNW,331,2.0,5.0,92,0.00,,---,0.00,VWS V14.00,2013-03-01 05:06:00,
2013-03-01 00:11:00,32.4,30.3,29.96,NNW,331,0.0,5.0,92,0.00,,---,0.00,VWS V14.00,2013-03-01 05:11:00,
2013-03-01 00:16:00,32.3,30.2,29.96,NNW,331,0.0,5.0,92,0.00,,---,0.00,VWS V14.00,2013-03-01 05:16:00,
2013-03-01 00:21:00,32.3,30.2,29.96,NNW,331,0.0,5.0,92,0.00,,---,0.00,VWS V14.00,2013-03-01 05:21:00,
2013-03-01 00:26:00,32.4,30.3,29.96,NNW,331,0.0,5.0,92,0.00,,---,0.00,VWS V14.00,2013-03-01 05:26:00,
2013-03-01 00:31:00,32.4,30.3,29.96,NNW,333,1.0,2.0,92,0.00,,---,0.00,VWS V14.00,2013-03-01 05:31:00,
2013-03-01 00:36:00,32.4,30.3,29.96,NNW,333,0.0,4.0,92,0.00,,---,0.00,VWS V14.00,2013-03-01 05:36:00,
2013-03-01 00:41:00,32.4,30.3,29.96,NNE,15,0.0,4.0,92,0.00,,---,0.00,VWS V14.00,2013-03-01 05:41:00,
2013-03-01 00:46:00,32.4,30.3,29.96,North,11,0.0,4.0,92,0.00,,---,0.00,VWS V14.00,2013-03-01 05:46:00,
2013-03-01 00:52:00,32.4,30.3,29.96,NNE,12,0.0,4.0,92,0.00,,---,0.00,VWS V14.00,2013-03-01 05:52:00,
2013-03-01 00:57:00,32.4,30.1,29.97,NE,52,0.0,4.0,91,0.00,,---,0.00,VWS V14.00,2013-03-01 05:57:00,
2013-03-01 01:02:00,32.3,30.0,29.97,NE,52,0.0,0.0,91,0.00,,---,0.00,VWS V14.00,2013-03-01 06:02:00,
2013-03-01 01:07:00,32.3,30.0,29.97,NE,51,0.0,0.0,91,0.00,,---,0.00,VWS V14.00,2013-03-01 06:07:00,
2013-03-01 01:12:00,32.4,30.1,29.97,NE,52,0.0,0.0,91,0.00,,---,0.00,VWS V14.00,2013-03-01 06:12:00,
2013-03-01 01:17:00,32.4,30.1,29.97,NE,52,0.0,1.0,91,0.00,,---,0.00,VWS V14.00,2013-03-01 06:17:00,
2013-03-01 01:22:00,32.4,30.1,29.97,NE,52,0.0,3.0,91,0.00,,---,0.00,VWS V14.00,2013-03-01 06:22:00,
2013-03-01 01:27:00,32.3,30.0,29.97,NE,49,0.0,3.0,91,0.00,,---,0.00,VWS V14.00,2013-03-01 06:27:00,
2013-03-01 01:32:00,32.3,30.0,29.97,NNW,341,1.0,6.0,91,0.00,,---,0.00,VWS V14.00,2013-03-01 06:32:00,
2013-03-01 01:37:00,32.3,29.7,29.97,NNW,348,0.0,6.0,90,0.00,,---,0.00,VWS V14.00,2013-03-01 06:37:00,
2013-03-01 01:42:00,32.3,29.7,29.97,NNE,15,0.0,6.0,90,0.00,,---,0.00,VWS V14.00,2013-03-01 06:42:00,
2013-03-01 01:47:00,32.3,29.7,29.97,NNE,15,0.0,6.0,90,0.00,,---,0.00,VWS V14.00,2013-03-01 06:47:00,
2013-03-01 01:52:00,32.3,29.7,29.97,NNE,13,0.0,6.0,90,0.00,,---,0.00,VWS V14.00,2013-03-01 06:52:00,
2013-03-01 01:57:00,32.3,29.7,29.97,NNE,14,0.0,6.0,90,0.00,,---,0.00,VWS V14.00,2013-03-01 06:57:00,
2013-03-01 02:03:00,32.2,29.6,29.97,NNW,347,0.0,1.0,90,0.00,,---,0.00,VWS V14.00,2013-03-01 07:03:00,
2013-03-01 02:08:00,32.2,29.3,29.97,NE,48,1.0,4.0,89,0.00,,---,0.00,VWS V14.00,2013-03-01 07:08:00,
2013-03-01 02:13:00,32.2,29.3,29.97,NE,38,0.0,6.0,89,0.00,,---,0.00,VWS V14.00,2013-03-01 07:13:00,
2013-03-01 02:18:00,32.2,29.3,29.97,NE,38,0.0,6.0,89,0.00,,---,0.00,VWS V14.00,2013-03-01 07:18:00,
2013-03-01 02:23:00,32.1,29.2,29.97,NNE,22,0.0,6.0,89,0.00,,---,0.00,VWS V14.00,2013-03-01 07:23:00,
2013-03-01 02:28:00,32.1,29.2,29.97,NNE,15,2.0,6.0,89,0.00,,---,0.00,VWS V14.00,2013-03-01 07:28:00,
2013-03-01 02:33:00,32.1,29.2,29.97,NE,34,0.0,2.0,89,0.00,,---,0.00,VWS V14.00,2013-03-01 07:33:00,
2013-03-01 02:38:00,32.1,29.2,29.97,NE,50,1.0,3.0,89,0.00,,---,0.00,VWS V14.00,2013-03-01 07:38:00,
2013-03-01 02:43:00,32.1,29.2,29.97,NNW,331,2.0,6.0,89,0.00,,---,0.00,VWS V14.00,2013-03-01 07:43:00,
2013-03-01 02:48:00,32.0,29.1,29.96,NNW,332,0.0,6.0,89,0.00,,---,0.00,VWS V14.00,2013-03-01 07:48:00,
2013-03-01 02:53:00,32.0,29.1,29.97,North,360,0.0,6.0,89,0.00,,---,0.00,VWS V14.00,2013-03-01 07:53:00,
2013-03-01 02:58:00,31.9,28.8,29.96,North,9,0.0,6.0,88,0.00,,---,0.00,VWS V14.00,2013-03-01 07:58:00,
2013-03-01 03:03:00,31.9,29.0,29.96,NNE,24,0.0,1.0,89,0.00,,---,0.00,VWS V14.00,2013-03-01 08:03:00,
2013-03-01 03:09:00,31.8,28.7,29.97,NNE,22,0.0,4.0,88,0.00,,---,0.00,VWS V14.00,2013-03-01 08:09:00,
2013-03-01 03:14:00,31.7,28.6,29.96,North,10,4.0,4.0,88,0.00,,---,0.00,VWS V14.00,2013-03-01 08:14:00,
2013-03-01 03:19:00,31.7,28.6,29.96,North,351,0.0,5.0,88,0.00,,---,0.00,VWS V14.00,2013-03-01 08:19:00,
2013-03-01 03:24:00,31.6,28.5,29.97,North,360,3.0,5.0,88,0.00,,---,0.00,VWS V14.00,2013-03-01 08:24:00,
2013-03-01 03:29:00,31.6,28.5,29.97,North,5,3.0,6.0,88,0.00,,---,0.00,VWS V14.00,2013-03-01 08:29:00,
2013-03-01 03:34:00,31.5,28.4,29.96,NE,36,1.0,5.0,88,0.00,,---,0.00,VWS V14.00,2013-03-01 08:34:00,
2013-03-01 03:39:00,31.4,28.3,29.96,NNW,343,2.0,5.0,88,0.00,,---,0.00,VWS V14.00,2013-03-01 08:39:00,
2013-03-01 03:44:00,31.4,28.3,29.97,North,351,0.0,5.0,88,0.00,,---,0.00,VWS V14.00,2013-03-01 08:44:00,
2013-03-01 03:49:00,31.4,28.3,29.97,North,9,0.0,5.0,88,0.00,,---,0.00,VWS V14.00,2013-03-01 08:49:00,
2013-03-01 03:54:00,31.4,28.5,29.97,NE,47,0.0,5.0,89,0.00,,---,0.00,VWS V14.00,2013-03-01 08:54:00,
2013-03-01 04:00:00,31.4,28.3,29.97,ENE,63,4.0,6.0,88,0.00,,---,0.00,VWS V14.00,2013-03-01 09:00:00,
2013-03-01 04:05:00,31.2,28.1,29.97,ENE,67,0.0,5.0,88,0.00,,---,0.00,VWS V14.00,2013-03-01 09:05:00,
2013-03-01 04:10:00,31.1,28.0,29.97,NNE,31,1.0,5.0,88,0.00,,---,0.00,VWS V14.00,2013-03-01 09:10:00,
2013-03-01 04:15:00,31.0,27.9,29.97,ENE,58,3.0,7.0,88,0.00,,---,0.00,VWS V14.00,2013-03-01 09:15:00,
2013-03-01 04:20:00,31.0,27.9,29.97,NE,43,0.0,7.0,88,0.00,,---,0.00,VWS V14.00,2013-03-01 09:20:00,
2013-03-01 04:25:00,30.9,27.8,29.97,NE,52,0.0,7.0,88,0.00,,---,0.00,VWS V14.00,2013-03-01 09:25:00,
2013-03-01 04:30:00,30.9,27.8,29.97,ENE,63,0.0,2.0,88,0.00,,---,0.00,VWS V14.00,2013-03-01 09:30:00,
2013-03-01 04:35:00,30.9,27.8,29.98,NNE,33,2.0,5.0,88,0.00,,---,0.00,VWS V14.00,2013-03-01 09:35:00,
2013-03-01 04:40:00,30.7,27.6,29.97,NNE,32,3.0,5.0,88,0.00,,---,0.00,VWS V14.00,2013-03-01 09:40:00,
2013-03-01 04:45:00,30.7,27.6,29.98,NNE,28,2.0,6.0,88,0.00,,---,0.00,VWS V14.00,2013-03-01 09:45:00,
2013-03-01 04:50:00,30.6,27.2,29.98,ENE,58,0.0,6.0,87,0.00,,---,0.00,VWS V14.00,2013-03-01 09:50:00,
2013-03-01 04:55:00,30.4,27.0,29.98,North,9,1.0,6.0,87,0.00,,---,0.00,VWS V14.00,2013-03-01 09:55:00,
2013-03-01 05:01:00,30.3,26.9,29.98,ENE,75,4.0,7.0,87,0.00,,---,0.00,VWS V14.00,2013-03-01 10:01:00,
2013-03-01 05:06:00,30.3,26.9,29.98,ENE,68,2.0,7.0,87,0.00,,---,0.00,VWS V14.00,2013-03-01 10:06:00,
2013-03-01 05:11:00,30.2,26.8,29.98,ENE,62,0.0,7.0,87,0.00,,---,0.00,VWS V14.00,2013-03-01 10:11:00,
2013-03-01 05:16:00,30.2,26.8,29.98,NE,52,1.0,7.0,87,0.00,,---,0.00,VWS V14.00,2013-03-01 10:16:00,
2013-03-01 05:21:00,30.1,26.4,29.99,NE,40,3.0,7.0,86,0.00,,---,0.00,VWS V14.00,2013-03-01 10:21:00,
2013-03-01 05:26:00,29.9,26.2,29.99,NNE,26,2.0,7.0,86,0.00,,---,0.00,VWS V14.00,2013-03-01 10:26:00,
2013-03-01 05:31:00,29.8,25.9,29.99,NE,41,2.0,3.0,85,0.00,,---,0.00,VWS V14.00,2013-03-01 10:31:00,
2013-03-01 05:36:00,29.7,26.0,29.99,ENE,57,0.0,4.0,86,0.00,,---,0.00,VWS V14.00,2013-03-01 10:36:00,
2013-03-01 05:41:00,29.7,25.8,29.99,NNE,12,3.0,6.0,85,0.00,,---,0.00,VWS V14.00,2013-03-01 10:41:00,
2013-03-01 05:46:00,29.7,25.8,29.99,NE,50,4.0,7.0,85,0.00,,---,0.00,VWS V14.00,2013-03-01 10:46:00,
2013-03-01 05:51:00,29.6,25.4,29.99,ENE,63,3.0,7.0,84,0.00,,---,0.00,VWS V14.00,2013-03-01 10:51:00,
2013-03-01 05:56:00,29.6,25.4,29.99,NNE,26,0.0,7.0,84,0.00,,---,0.00,VWS V14.00,2013-03-01 10:56:00,
2013-03-01 06:01:00,29.6,25.4,29.99,NNE,29,1.0,7.0,84,0.00,,---,0.00,VWS V14.00,2013-03-01 11:01:00,
2013-03-01 06:06:00,29.5,25.3,30.00,NE,40,0.0,7.0,84,0.00,,---,0.00,VWS V14.00,2013-03-01 11:06:00,
2013-03-01 06:11:00,29.5,25.3,30.00,ENE,60,0.0,7.0,84,0.00,,---,0.00,VWS V14.00,2013-03-01 11:11:00,
2013-03-01 06:17:00,29.5,25.3,30.00,NE,53,5.0,7.0,84,0.00,,---,0.00,VWS V14.00,2013-03-01 11:17:00,
2013-03-01 06:22:00,29.4,25.2,30.00,NNE,23,1.0,7.0,84,0.00,,---,0.00,VWS V14.00,2013-03-01 11:22:00,
2013-03-01 06:27:00,29.4,25.2,30.01,North,9,0.0,7.0,84,0.00,,---,0.00,VWS V14.00,2013-03-01 11:27:00,
2013-03-01 06:32:00,29.3,25.1,30.01,North,9,2.0,7.0,84,0.00,,---,0.00,VWS V14.00,2013-03-01 11:32:00,
2013-03-01 06:37:00,29.3,25.1,30.01,North,9,0.0,7.0,84,0.00,,---,0.00,VWS V14.00,2013-03-01 11:37:00,
2013-03-01 06:42:00,29.2,25.0,30.01,ENE,76,4.0,7.0,84,0.00,,---,0.00,VWS V14.00,2013-03-01 11:42:00,
2013-03-01 06:47:00,29.2,25.0,30.01,NNE,31,2.0,7.0,84,0.00,,---,0.00,VWS V14.00,2013-03-01 11:47:00,
2013-03-01 06:53:00,29.2,25.0,30.01,ENE,57,0.0,7.0,84,0.00,,---,0.00,VWS V14.00,2013-03-01 11:53:00,
2013-03-01 06:58:00,29.2,25.0,30.01,NE,53,2.0,7.0,84,0.00,,---,0.00,VWS V14.00,2013-03-01 11:58:00,
2013-03-01 07:03:00,29.1,24.9,30.01,NNE,32,0.0,3.0,84,0.00,,---,0.00,VWS V14.00,2013-03-01 12:03:00,
2013-03-01 07:08:00,29.1,24.9,30.02,NNE,15,3.0,5.0,84,0.00,,---,0.00,VWS V14.00,2013-03-01 12:08:00,
2013-03-01 07:13:00,29.0,24.8,30.02,NE,38,1.0,5.0,84,0.00,,---,0.00,VWS V14.00,2013-03-01 12:13:00,
2013-03-01 07:18:00,29.0,24.8,30.02,NNW,348,5.0,5.0,84,0.00,,---,0.00,VWS V14.00,2013-03-01 12:18:00,
2013-03-01 07:23:00,29.0,24.8,30.02,NNE,32,0.0,5.0,84,0.00,,---,0.00,VWS V14.00,2013-03-01 12:23:00,
2013-03-01 07:28:00,29.0,24.8,30.02,NE,35,0.0,5.0,84,0.00,,---,0.00,VWS V14.00,2013-03-01 12:28:00,
2013-03-01 07:33:00,29.0,24.8,30.02,NNE,31,2.0,5.0,84,0.00,,---,0.00,VWS V14.00,2013-03-01 12:33:00,
2013-03-01 07:38:00,28.9,24.7,30.03,NE,34,3.0,5.0,84,0.00,,---,0.00,VWS V14.00,2013-03-01 12:38:00,
2013-03-01 07:43:00,28.9,24.7,30.03,NNE,33,1.0,7.0,84,0.00,,---,0.00,VWS V14.00,2013-03-01 12:43:00,
2013-03-01 07:48:00,29.0,24.8,30.03,ENE,65,0.0,7.0,84,0.00,,---,0.00,VWS V14.00,2013-03-01 12:48:00,
2013-03-01 07:53:00,29.0,24.8,30.03,NE,34,1.0,7.0,84,0.00,,---,0.00,VWS V14.00,2013-03-01 12:53:00,
2013-03-01 07:58:00,29.0,24.5,30.03,NNE,24,0.0,7.0,83,0.00,,---,0.00,VWS V14.00,2013-03-01 12:58:00,
2013-03-01 08:03:00,29.0,24.8,30.04,NE,42,0.0,4.0,84,0.00,,---,0.00,VWS V14.00,2013-03-01 13:03:00,
2013-03-01 08:08:00,29.0,24.8,30.04,NE,36,3.0,4.0,84,0.00,,---,0.00,VWS V14.00,2013-03-01 13:08:00,
2013-03-01 08:13:00,29.0,24.8,30.04,NE,54,0.0,4.0,84,0.00,,---,0.00,VWS V14.00,2013-03-01 13:13:00,
2013-03-01 08:18:00,29.1,24.9,30.04,North,5,3.0,5.0,84,0.00,,---,0.00,VWS V14.00,2013-03-01 13:18:00,
2013-03-01 08:23:00,29.2,25.0,30.04,North,351,5.0,5.0,84,0.00,,---,0.00,VWS V14.00,2013-03-01 13:23:00,
2013-03-01 08:28:00,29.2,24.7,30.04,NE,36,0.0,5.0,83,0.00,,---,0.00,VWS V14.00,2013-03-01 13:28:00,
2013-03-01 08:34:00,29.2,24.7,30.04,NE,56,1.0,4.0,83,0.00,,---,0.00,VWS V14.00,2013-03-01 13:34:00,
2013-03-01 08:39:00,29.2,24.7,30.05,NE,51,2.0,4.0,83,0.00,,---,0.00,VWS V14.00,2013-03-01 13:39:00,
2013-03-01 08:44:00,29.2,24.7,30.05,NNE,19,0.0,4.0,83,0.00,,---,0.00,VWS V14.00,2013-03-01 13:44:00,
2013-03-01 08:49:00,29.2,24.4,30.05,NNE,16,1.0,6.0,82,0.00,,---,0.00,VWS V14.00,2013-03-01 13:49:00,
2013-03-01 08:54:00,29.2,24.7,30.05,NNE,13,0.0,6.0,83,0.00,,---,0.00,VWS V14.00,2013-03-01 13:54:00,
2013-03-01 08:59:00,29.3,24.8,30.05,NE,46,2.0,6.0,83,0.00,,---,0.00,VWS V14.00,2013-03-01 13:59:00,
2013-03-01 09:04:00,29.3,24.8,30.05,ENE,59,0.0,4.0,83,0.00,,---,0.00,VWS V14.00,2013-03-01 14:04:00,
2013-03-01 09:09:00,29.4,24.9,30.05,ENE,61,0.0,4.0,83,0.00,,---,0.00,VWS V14.00,2013-03-01 14:09:00,
2013-03-01 09:14:00,29.4,24.9,30.05,ENE,58,0.0,4.0,83,0.00,,---,0.00,VWS V14.00,2013-03-01 14:14:00,
2013-03-01 09:19:00,29.4,24.9,30.05,NE,55,0.0,4.0,83,0.00,,---,0.00,VWS V14.00,2013-03-01 14:19:00,
2013-03-01 09:24:00,29.6,25.4,30.05,NE,54,1.0,4.0,84,0.00,,---,0.00,VWS V14.00,2013-03-01 14:24:00,
2013-03-01 09:29:00,29.6,25.4,30.05,NE,55,0.0,4.0,84,0.00,,---,0.00,VWS V14.00,2013-03-01 14:29:00,
2013-03-01 09:34:00,29.7,25.5,30.05,NE,55,2.0,3.0,84,0.00,,---,0.00,VWS V14.00,2013-03-01 14:34:00,
2013-03-01 09:39:00,29.8,25.3,30.06,ENE,57,1.0,4.0,83,0.00,,---,0.00,VWS V14.00,2013-03-01 14:39:00,
2013-03-01 09:44:00,29.8,25.0,30.06,NE,47,0.0,7.0,82,0.00,,---,0.00,VWS V14.00,2013-03-01 14:44:00,
2013-03-01 09:49:00,29.9,25.4,30.06,NE,46,0.0,7.0,83,0.00,,---,0.00,VWS V14.00,2013-03-01 14:49:00,
2013-03-01 09:54:00,29.9,25.1,30.06,NE,44,1.0,7.0,82,0.00,,---,0.00,VWS V14.00,2013-03-01 14:54:00,
2013-03-01 09:59:00,29.9,25.1,30.06,ENE,72,0.0,7.0,82,0.00,,---,0.00,VWS V14.00,2013-03-01 14:59:00,
2013-03-01 10:04:00,30.0,25.2,30.06,ENE,71,1.0,2.0,82,0.00,,---,0.00,VWS V14.00,2013-03-01 15:04:00,
2013-03-01 10:09:00,30.0,25.2,30.06,ENE,63,2.0,6.0,82,0.00,,---,0.00,VWS V14.00,2013-03-01 15:09:00,
2013-03-01 10:15:00,30.2,25.4,30.06,ENE,63,0.0,6.0,82,0.00,,---,0.00,VWS V14.00,2013-03-01 15:15:00,
2013-03-01 10:20:00,30.4,25.3,30.06,ENE,60,0.0,6.0,81,0.00,,---,0.00,VWS V14.00,2013-03-01 15:20:00,
2013-03-01 10:25:00,30.5,25.4,30.06,ENE,71,0.0,6.0,81,0.00,,---,0.00,VWS V14.00,2013-03-01 15:25:00,
2013-03-01 10:30:00,30.5,25.4,30.06,NE,49,3.0,6.0,81,0.00,,---,0.00,VWS V14.00,2013-03-01 15:30:00,
2013-03-01 10:35:00,30.6,25.2,30.06,ENE,65,2.0,4.0,80,0.00,,---,0.00,VWS V14.00,2013-03-01 15:35:00,
2013-03-01 10:40:00,30.6,24.9,30.06,North,355,4.0,8.0,79,0.00,,---,0.00,VWS V14.00,2013-03-01 15:40:00,
2013-03-01 10:45:00,30.6,24.6,30.06,NE,49,6.0,8.0,78,0.00,,---,0.00,VWS V14.00,2013-03-01 15:45:00,
2013-03-01 10:50:00,30.7,24.7,30.06,NE,49,0.0,8.0,78,0.00,,---,0.00,VWS V14.00,2013-03-01 15:50:00,
2013-03-01 10:55:00,30.7,25.0,30.07,ENE,69,0.0,8.0,79,0.00,,---,0.00,VWS V14.00,2013-03-01 15:55:00,
2013-03-01 11:00:00,30.7,24.7,30.07,North,9,2.0,2.0,78,0.00,,---,0.00,VWS V14.00,2013-03-01 16:00:00,
2013-03-01 11:05:00,30.6,24.6,30.07,NNW,343,4.0,6.0,78,0.00,,---,0.00,VWS V14.00,2013-03-01 16:05:00,
2013-03-01 11:10:00,30.4,24.1,30.07,ENE,59,2.0,7.0,77,0.00,,---,0.00,VWS V14.00,2013-03-01 16:10:00,
2013-03-01 11:15:00,30.6,24.6,30.07,ENE,57,1.0,7.0,78,0.00,,---,0.00,VWS V14.00,2013-03-01 16:15:00,
2013-03-01 11:20:00,30.8,24.5,30.07,ENE,59,5.0,7.0,77,0.00,,---,0.00,VWS V14.00,2013-03-01 16:20:00,
2013-03-01 11:25:00,31.1,24.8,30.07,ENE,57,2.0,7.0,77,0.00,,---,0.00,VWS V14.00,2013-03-01 16:25:00,
2013-03-01 11:30:00,31.2,24.5,30.07,North,11,2.0,3.0,76,0.00,,---,0.00,VWS V14.00,2013-03-01 16:30:00,
2013-03-01 11:35:00,31.2,24.2,30.08,ENE,63,5.0,9.0,75,0.00,,---,0.00,VWS V14.00,2013-03-01 16:35:00,
2013-03-01 11:40:00,31.3,24.0,30.08,NE,49,4.0,9.0,74,0.00,,---,0.00,VWS V14.00,2013-03-01 16:40:00,
2013-03-01 11:45:00,31.4,24.1,30.07,NE,45,3.0,9.0,74,0.00,,---,0.00,VWS V14.00,2013-03-01 16:45:00,
2013-03-01 11:50:00,31.4,24.1,30.07,NNE,32,3.0,9.0,74,0.00,,---,0.00,VWS V14.00,2013-03-01 16:50:00,
2013-03-01 11:55:00,31.4,24.1,30.08,NE,46,3.0,9.0,74,0.00,,---,0.00,VWS V14.00,2013-03-01 16:55:00,
2013-03-01 12:00:00,31.2,23.6,30.08,NNE,17,0.0,3.0,73,0.00,,---,0.00,VWS V14.00,2013-03-01 17:00:00,
2013-03-01 12:05:00,31.0,23.4,30.08,NNE,15,2.0,8.0,73,0.00,,---,0.00,VWS V14.00,2013-03-01 17:05:00,
2013-03-01 12:10:00,30.9,23.6,30.07,NE,52,1.0,8.0,74,0.00,,---,0.00,VWS V14.00,2013-03-01 17:10:00,
2013-03-01 12:16:00,30.9,23.3,30.07,NNE,25,3.0,8.0,73,0.00,,---,0.00,VWS V14.00,2013-03-01 17:16:00,
2013-03-01 12:21:00,30.8,23.5,30.07,North,360,1.0,8.0,74,0.00,,---,0.00,VWS V14.00,2013-03-01 17:21:00,
2013-03-01 12:26:00,30.8,23.2,30.07,NNE,18,1.0,8.0,73,0.00,,---,0.00,VWS V14.00,2013-03-01 17:26:00,
2013-03-01 12:31:00,31.1,24.1,30.07,NE,44,2.0,3.0,75,0.00,,---,0.00,VWS V14.00,2013-03-01 17:31:00,
2013-03-01 12:36:00,31.3,24.0,30.07,ENE,69,0.0,8.0,74,0.00,,---,0.00,VWS V14.00,2013-03-01 17:36:00,
2013-03-01 12:41:00,31.6,24.0,30.06,NNW,344,4.0,8.0,73,0.00,,---,0.00,VWS V14.00,2013-03-01 17:41:00,
2013-03-01 12:46:00,31.2,23.2,30.07,NNE,22,2.0,10.0,72,0.00,,---,0.00,VWS V14.00,2013-03-01 17:46:00,
2013-03-01 12:51:00,31.1,23.8,30.06,NE,44,3.0,10.0,74,0.00,,---,0.00,VWS V14.00,2013-03-01 17:51:00,
2013-03-01 12:56:00,31.1,23.5,30.06,NE,48,0.0,10.0,73,0.00,,---,0.00,VWS V14.00,2013-03-01 17:56:00,
2013-03-01 13:02:00,31.0,23.7,30.06,ENE,63,0.0,7.0,74,0.00,,---,0.00,VWS V14.00,2013-03-01 18:02:00,
2013-03-01 13:07:00,30.9,23.6,30.06,ENE,71,2.0,7.0,74,0.00,,---,0.00,VWS V14.00,2013-03-01 18:07:00,
2013-03-01 13:12:00,31.0,23.4,30.06,ENE,63,1.0,10.0,73,0.00,,---,0.00,VWS V14.00,2013-03-01 18:12:00,
2013-03-01 13:17:00,31.1,23.8,30.06,NE,53,1.0,10.0,74,0.01,,---,0.01,VWS V14.00,2013-03-01 18:17:00,
2013-03-01 13:22:00,31.2,23.9,30.06,NNE,17,4.0,10.0,74,0.01,,---,0.01,VWS V14.00,2013-03-01 18:22:00,
2013-03-01 13:27:00,31.4,23.8,30.05,ENE,71,4.0,10.0,73,0.01,,---,0.01,VWS V14.00,2013-03-01 18:27:00,
2013-03-01 13:32:00,31.5,23.5,30.05,NE,42,1.0,5.0,72,0.01,,---,0.01,VWS V14.00,2013-03-01 18:32:00,
2013-03-01 13:37:00,31.5,23.5,30.06,East,90,4.0,7.0,72,0.01,,---,0.01,VWS V14.00,2013-03-01 18:37:00,
2013-03-01 13:42:00,31.5,23.2,30.06,NNE,18,1.0,8.0,71,0.01,,---,0.01,VWS V14.00,2013-03-01 18:42:00,
2013-03-01 13:47:00,31.1,23.5,30.06,NNE,28,4.0,8.0,73,0.01,,---,0.01,VWS V14.00,2013-03-01 18:47:00,
2013-03-01 13:52:00,30.5,22.6,30.06,NNE,25,3.0,9.0,72,0.01,,---,0.01,VWS V14.00,2013-03-01 18:52:00,
2013-03-01 13:57:00,30.3,23.0,30.06,NNE,31,3.0,9.0,74,0.01,,---,0.01,VWS V14.00,2013-03-01 18:57:00,
2013-03-01 14:02:00,30.3,23.0,30.06,NE,49,2.0,5.0,74,0.01,,---,0.01,VWS V14.00,2013-03-01 19:02:00,
2013-03-01 14:08:00,30.2,22.9,30.06,NNE,17,2.0,7.0,74,0.01,,---,0.01,VWS V14.00,2013-03-01 19:08:00,
2013-03-01 14:13:00,30.0,22.7,30.06,NE,48,2.0,7.0,74,0.01,,---,0.01,VWS V14.00,2013-03-01 19:13:00,
2013-03-01 14:18:00,29.8,22.9,30.06,NE,40,1.0,7.0,75,0.01,,---,0.01,VWS V14.00,2013-03-01 19:18:00,
2013-03-01 14:23:00,29.5,22.6,30.05,NNE,28,3.0,7.0,75,0.01,,---,0.01,VWS V14.00,2013-03-01 19:23:00,
2013-03-01 14:28:00,29.3,22.7,30.05,North,5,0.0,7.0,76,0.01,,---,0.01,VWS V14.00,2013-03-01 19:28:00,
2013-03-01 14:33:00,29.2,22.6,30.05,NE,44,1.0,4.0,76,0.00,,---,0.01,VWS V14.00,2013-03-01 19:33:00,
2013-03-01 14:38:00,29.0,22.7,30.05,North,11,0.0,4.0,77,0.00,,---,0.01,VWS V14.00,2013-03-01 19:38:00,
2013-03-01 14:43:00,29.0,22.7,30.05,NE,34,0.0,6.0,77,0.00,,---,0.01,VWS V14.00,2013-03-01 19:43:00,
2013-03-01 14:48:00,28.9,22.3,30.06,NE,42,2.0,10.0,76,0.00,,---,0.01,VWS V14.00,2013-03-01 19:48:00,
2013-03-01 14:53:00,28.9,22.3,30.06,NNE,20,1.0,10.0,76,0.00,,---,0.01,VWS V14.00,2013-03-01 19:53:00,
2013-03-01 14:58:00,28.8,22.2,30.06,NNE,15,2.0,10.0,76,0.00,,---,0.01,VWS V14.00,2013-03-01 19:58:00,
2013-03-01 15:03:00,28.8,22.2,30.06,NE,51,1.0,4.0,76,0.00,,---,0.01,VWS V14.00,2013-03-01 20:03:00,
2013-03-01 15:08:00,28.8,22.2,30.06,North,9,5.0,5.0,76,0.00,,---,0.01,VWS V14.00,2013-03-01 20:08:00,
2013-03-01 15:13:00,28.8,22.2,30.06,North,9,2.0,5.0,76,0.00,,---,0.01,VWS V14.00,2013-03-01 20:13:00,
2013-03-01 15:18:00,28.7,22.1,30.06,North,5,6.0,6.0,76,0.00,,---,0.01,VWS V14.00,2013-03-01 20:18:00,
2013-03-01 15:23:00,28.5,21.9,30.06,NNE,24,2.0,6.0,76,0.00,,---,0.01,VWS V14.00,2013-03-01 20:23:00,
2013-03-01 15:28:00,28.5,21.9,30.06,NNE,25,0.0,6.0,76,0.00,,---,0.01,VWS V14.00,2013-03-01 20:28:00,
2013-03-01 15:33:00,28.4,21.5,30.06,NNE,30,0.0,7.0,75,0.00,,---,0.01,VWS V14.00,2013-03-01 20:33:00,
2013-03-01 15:38:00,28.3,21.1,30.06,NNE,26,1.0,7.0,74,0.00,,---,0.01,VWS V14.00,2013-03-01 20:38:00,
2013-03-01 15:44:00,28.3,21.4,30.06,NNE,26,2.0,7.0,75,0.00,,---,0.01,VWS V14.00,2013-03-01 20:44:00,
2013-03-01 15:49:00,28.5,21.6,30.06,NE,47,0.0,7.0,75,0.00,,---,0.01,VWS V14.00,2013-03-01 20:49:00,
2013-03-01 15:54:00,28.5,21.0,30.06,NNE,26,0.0,7.0,73,0.00,,---,0.01,VWS V14.00,2013-03-01 20:54:00,
2013-03-01 15:59:00,28.5,21.0,30.06,North,350,2.0,7.0,73,0.00,,---,0.01,VWS V14.00,2013-03-01 20:59:00,
2013-03-01 16:04:00,28.4,20.9,30.07,North,355,4.0,6.0,73,0.00,,---,0.01,VWS V14.00,2013-03-01 21:04:00,
2013-03-01 16:09:00,28.3,21.1,30.07,North,351,2.0,6.0,74,0.00,,---,0.01,VWS V14.00,2013-03-01 21:09:00,
2013-03-01 16:14:00,28.3,21.1,30.07,NE,40,0.0,6.0,74,0.00,,---,0.01,VWS V14.00,2013-03-01 21:14:00,
2013-03-01 16:19:00,28.3,21.1,30.07,NNW,334,2.0,6.0,74,0.00,,---,0.01,VWS V14.00,2013-03-01 21:19:00,
2013-03-01 16:24:00,28.2,21.3,30.07,NNW,327,4.0,6.0,75,0.00,,---,0.01,VWS V14.00,2013-03-01 21:24:00,
2013-03-01 16:29:00,28.2,21.3,30.07,NNE,15,2.0,6.0,75,0.00,,---,0.01,VWS V14.00,2013-03-01 21:29:00,
2013-03-01 16:34:00,28.2,21.0,30.07,NE,55,0.0,4.0,74,0.00,,---,0.01,VWS V14.00,2013-03-01 21:34:00,
2013-03-01 16:39:00,28.2,21.3,30.07,NE,51,2.0,4.0,75,0.00,,---,0.01,VWS V14.00,2013-03-01 21:39:00,
2013-03-01 16:44:00,28.3,21.4,30.07,NNE,17,0.0,4.0,75,0.00,,---,0.01,VWS V14.00,2013-03-01 21:44:00,
2013-03-01 16:49:00,28.2,21.3,30.08,NE,36,3.0,4.0,75,0.00,,---,0.01,VWS V14.00,2013-03-01 21:49:00,
2013-03-01 16:54:00,28.1,20.9,30.08,NNE,33,2.0,4.0,74,0.00,,---,0.01,VWS V14.00,2013-03-01 21:54:00,
2013-03-01 17:00:00,27.9,20.7,30.08,NE,51,5.0,6.0,74,0.00,,---,0.01,VWS V14.00,2013-03-01 22:00:00,
2013-03-01 17:05:00,27.8,20.3,30.08,NNE,32,0.0,4.0,73,0.00,,---,0.01,VWS V14.00,2013-03-01 22:05:00,
2013-03-01 17:10:00,27.7,20.5,30.08,NE,34,1.0,4.0,74,0.00,,---,0.01,VWS V14.00,2013-03-01 22:10:00,
2013-03-01 17:15:00,27.7,20.2,30.08,North,360,1.0,4.0,73,0.00,,---,0.01,VWS V14.00,2013-03-01 22:15:00,
2013-03-01 17:20:00,27.5,20.3,30.08,North,355,0.0,5.0,74,0.00,,---,0.01,VWS V14.00,2013-03-01 22:20:00,
2013-03-01 17:25:00,27.4,20.2,30.08,North,349,2.0,5.0,74,0.00,,---,0.01,VWS V14.00,2013-03-01 22:25:00,
2013-03-01 17:30:00,27.3,20.1,30.08,NNW,348,4.0,4.0,74,0.00,,---,0.01,VWS V14.00,2013-03-01 22:30:00,
2013-03-01 17:35:00,27.1,19.9,30.08,NNW,338,2.0,5.0,74,0.00,,---,0.01,VWS V14.00,2013-03-01 22:35:00,
2013-03-01 17:40:00,27.1,20.2,30.08,NNW,348,4.0,7.0,75,0.00,,---,0.01,VWS V14.00,2013-03-01 22:40:00,
2013-03-01 17:45:00,27.1,20.2,30.08,North,355,5.0,7.0,75,0.00,,---,0.01,VWS V14.00,2013-03-01 22:45:00,
2013-03-01 17:50:00,27.0,20.5,30.08,North,355,4.0,7.0,76,0.00,,---,0.01,VWS V14.00,2013-03-01 22:50:00,
2013-03-01 17:55:00,27.0,20.5,30.08,NNE,32,3.0,7.0,76,0.00,,---,0.01,VWS V14.00,2013-03-01 22:55:00,
2013-03-01 18:00:00,27.0,20.5,30.08,NE,53,1.0,3.0,76,0.00,,---,0.01,VWS V14.00,2013-03-01 23:00:00,
2013-03-01 18:05:00,27.0,20.5,30.08,East,82,0.0,6.0,76,0.00,,---,0.01,VWS V14.00,2013-03-01 23:05:00,
2013-03-01 18:10:00,27.1,20.9,30.08,ENE,57,1.0,6.0,77,0.00,,---,0.01,VWS V14.00,2013-03-01 23:10:00,
2013-03-01 18:15:00,27.1,20.5,30.08,NNE,23,4.0,7.0,76,0.00,,---,0.01,VWS V14.00,2013-03-01 23:15:00,
2013-03-01 18:20:00,27.0,20.5,30.09,NNE,13,0.0,7.0,76,0.00,,---,0.01,VWS V14.00,2013-03-01 23:20:00,
2013-03-01 18:25:00,26.9,20.7,30.09,NNW,340,2.0,7.0,77,0.00,,---,0.01,VWS V14.00,2013-03-01 23:25:00,
2013-03-01 18:31:00,26.8,20.6,30.09,NNW,348,4.0,4.0,77,0.00,,---,0.01,VWS V14.00,2013-03-01 23:31:00,
2013-03-01 18:36:00,26.6,20.7,30.10,North,349,2.0,5.0,78,0.00,,---,0.01,VWS V14.00,2013-03-01 23:36:00,
2013-03-01 18:41:00,26.6,22.7,30.09,NNW,343,2.0,6.0,85,0.00,,---,0.01,VWS V14.00,2013-03-01 23:41:00,
2013-03-01 18:46:00,26.6,20.7,30.09,North,355,1.0,6.0,78,0.00,,---,0.01,VWS V14.00,2013-03-01 23:46:00,
2013-03-01 18:51:00,26.5,20.6,30.09,North,5,2.0,6.0,78,0.00,,---,0.01,VWS V14.00,2013-03-01 23:51:00,
2013-03-01 18:56:00,26.5,20.9,30.10,North,355,0.0,6.0,79,0.00,,---,0.01,VWS V14.00,2013-03-01 23:56:00,
2013-03-01 19:01:00,26.5,20.9,30.10,North,349,2.0,2.0,79,0.00,,---,0.01,VWS V14.00,2013-03-02 00:01:00,
2013-03-01 19:06:00,26.5,20.9,30.10,NNW,340,1.0,8.0,79,0.00,,---,0.01,VWS V14.00,2013-03-02 00:06:00,
2013-03-01 19:11:00,26.5,20.9,30.11,NNW,346,0.0,8.0,79,0.00,,---,0.01,VWS V14.00,2013-03-02 00:11:00,
2013-03-01 19:16:00,26.5,20.9,30.11,NNE,19,2.0,8.0,79,0.00,,---,0.01,VWS V14.00,2013-03-02 00:16:00,
2013-03-01 19:21:00,26.4,20.8,30.11,NNE,20,0.0,8.0,79,0.00,,---,0.01,VWS V14.00,2013-03-02 00:21:00,
2013-03-01 19:27:00,26.3,20.7,30.11,NNW,341,2.0,8.0,79,0.00,,---,0.01,VWS V14.00,2013-03-02 00:27:00,
2013-03-01 19:32:00,26.3,20.7,30.12,NNE,13,2.0,4.0,79,0.00,,---,0.01,VWS V14.00,2013-03-02 00:32:00,
2013-03-01 19:37:00,26.2,20.6,30.11,North,9,1.0,5.0,79,0.00,,---,0.01,VWS V14.00,2013-03-02 00:37:00,
2013-03-01 19:42:00,26.2,20.9,30.12,North,9,1.0,5.0,80,0.00,,---,0.01,VWS V14.00,2013-03-02 00:42:00,
2013-03-01 19:47:00,26.2,20.9,30.12,North,355,2.0,5.0,80,0.00,,---,0.01,VWS V14.00,2013-03-02 00:47:00,
2013-03-01 19:52:00,26.1,20.8,30.12,NNW,340,2.0,5.0,80,0.00,,---,0.01,VWS V14.00,2013-03-02 00:52:00,
2013-03-01 19:57:00,26.0,20.7,30.12,North,351,1.0,8.0,80,0.00,,---,0.01,VWS V14.00,2013-03-02 00:57:00,
2013-03-01 20:02:00,25.9,20.6,30.12,NNE,31,3.0,3.0,80,0.00,,---,0.01,VWS V14.00,2013-03-02 01:02:00,
2013-03-01 20:07:00,25.9,20.3,30.12,NE,56,1.0,6.0,79,0.00,,---,0.01,VWS V14.00,2013-03-02 01:07:00,
2013-03-01 20:12:00,25.8,20.2,30.12,NNE,30,0.0,6.0,79,0.00,,---,0.01,VWS V14.00,2013-03-02 01:12:00,
2013-03-01 20:17:00,25.7,19.8,30.12,NNE,22,3.0,6.0,78,0.00,,---,0.01,VWS V14.00,2013-03-02 01:17:00,
2013-03-01 20:22:00,25.6,19.7,30.12,NE,44,1.0,6.0,78,0.00,,---,0.01,VWS V14.00,2013-03-02 01:22:00,
2013-03-01 20:27:00,25.6,19.4,30.12,NE,46,0.0,6.0,77,0.00,,---,0.01,VWS V14.00,2013-03-02 01:27:00,
2013-03-01 20:32:00,25.5,19.6,30.13,NE,38,0.0,2.0,78,0.00,,---,0.01,VWS V14.00,2013-03-02 01:32:00,
2013-03-01 20:37:00,25.5,19.3,30.13,NE,36,0.0,6.0,77,0.00,,---,0.01,VWS V14.00,2013-03-02 01:37:00,
2013-03-01 20:42:00,25.4,18.9,30.13,NE,54,2.0,6.0,76,0.00,,---,0.01,VWS V14.00,2013-03-02 01:42:00,
2013-03-01 20:47:00,25.4,18.9,30.13,North,9,0.0,6.0,76,0.00,,---,0.01,VWS V14.00,2013-03-02 01:47:00,
2013-03-01 20:52:00,25.4,19.2,30.13,NNE,15,0.0,6.0,77,0.00,,---,0.01,VWS V14.00,2013-03-02 01:52:00,
2013-03-01 20:57:00,25.3,19.1,30.13,NNE,13,3.0,6.0,77,0.00,,---,0.01,VWS V14.00,2013-03-02 01:57:00,
2013-03-01 21:02:00,25.3,19.1,30.13,NNE,25,0.0,3.0,77,0.00,,---,0.01,VWS V14.00,2013-03-02 02:02:00,
2013-03-01 21:08:00,25.3,19.4,30.13,NNE,24,0.0,3.0,78,0.00,,---,0.01,VWS V14.00,2013-03-02 02:08:00,
2013-03-01 21:13:00,25.3,19.4,30.13,NNE,24,0.0,4.0,78,0.00,,---,0.01,VWS V14.00,2013-03-02 02:13:00,
2013-03-01 21:18:00,25.3,19.4,30.14,NNE,22,1.0,4.0,78,0.00,,---,0.01,VWS V14.00,2013-03-02 02:18:00,
2013-03-01 21:23:00,25.3,19.4,30.14,NNE,24,0.0,4.0,78,0.00,,---,0.01,VWS V14.00,2013-03-02 02:23:00,
2013-03-01 21:28:00,25.4,19.5,30.14,NNE,24,2.0,4.0,78,0.00,,---,0.01,VWS V14.00,2013-03-02 02:28:00,
2013-03-01 21:33:00,25.4,19.5,30.14,NNE,30,0.0,3.0,78,0.00,,---,0.01,VWS V14.00,2013-03-02 02:33:00,
2013-03-01 21:38:00,25.4,19.5,30.14,NNE,30,0.0,3.0,78,0.00,,---,0.01,VWS V14.00,2013-03-02 02:38:00,
2013-03-01 21:43:00,25.4,19.5,30.14,NNE,25,1.0,4.0,78,0.00,,---,0.01,VWS V14.00,2013-03-02 02:43:00,
2013-03-01 21:48:00,25.4,19.5,30.14,NNE,14,1.0,5.0,78,0.00,,---,0.01,VWS V14.00,2013-03-02 02:48:00,
2013-03-01 21:53:00,25.3,19.4,30.14,North,5,3.0,9.0,78,0.00,,---,0.01,VWS V14.00,2013-03-02 02:53:00,
2013-03-01 21:58:00,25.3,19.4,30.14,NE,43,2.0,9.0,78,0.00,,---,0.01,VWS V14.00,2013-03-02 02:58:00,
2013-03-01 22:04:00,25.4,19.8,30.13,NE,44,0.0,2.0,79,0.00,,---,0.01,VWS V14.00,2013-03-02 03:04:00,
2013-03-01 22:09:00,25.4,19.5,30.14,NE,51,4.0,5.0,78,0.00,,---,0.01,VWS V14.00,2013-03-02 03:09:00,
2013-03-01 22:14:00,25.4,19.8,30.13,ENE,63,0.0,5.0,79,0.00,,---,0.01,VWS V14.00,2013-03-02 03:14:00,
2013-03-01 22:19:00,25.4,19.8,30.13,NNE,31,0.0,5.0,79,0.00,,---,0.01,VWS V14.00,2013-03-02 03:19:00,
2013-03-01 22:24:00,25.4,19.8,30.13,North,5,2.0,5.0,79,0.00,,---,0.01,VWS V14.00,2013-03-02 03:24:00,
2013-03-01 22:29:00,25.4,19.8,30.13,NNE,29,1.0,5.0,79,0.00,,---,0.01,VWS V14.00,2013-03-02 03:29:00,
2013-03-01 22:34:00,25.3,19.7,30.13,NNE,17,3.0,4.0,79,0.00,,---,0.01,VWS V14.00,2013-03-02 03:34:00,
2013-03-01 22:39:00,25.3,19.7,30.13,North,9,0.0,4.0,79,0.00,,---,0.01,VWS V14.00,2013-03-02 03:39:00,
2013-03-01 22:44:00,25.3,19.7,30.13,North,360,3.0,4.0,79,0.00,,---,0.01,VWS V14.00,2013-03-02 03:44:00,
2013-03-01 22:49:00,25.2,19.6,30.13,NNW,345,4.0,7.0,79,0.00,,---,0.01,VWS V14.00,2013-03-02 03:49:00,
2013-03-01 22:54:00,25.2,19.6,30.13,North,350,0.0,7.0,79,0.00,,---,0.01,VWS V14.00,2013-03-02 03:54:00,
2013-03-01 23:00:00,25.2,19.6,30.13,NNW,340,0.0,7.0,79,0.00,,---,0.01,VWS V14.00,2013-03-02 04:00:00,
2013-03-01 23:05:00,25.2,19.6,30.13,NNW,340,0.0,4.0,79,0.00,,---,0.01,VWS V14.00,2013-03-02 04:05:00,
2013-03-01 23:10:00,25.2,19.6,30.13,NNW,340,0.0,4.0,79,0.00,,---,0.01,VWS V14.00,2013-03-02 04:10:00,
2013-03-01 23:15:00,25.3,19.7,30.13,NNW,340,0.0,4.0,79,0.00,,---,0.01,VWS V14.00,2013-03-02 04:15:00,
2013-03-01 23:20:00,25.2,19.6,30.12,NNW,332,0.0,7.0,79,0.00,,---,0.01,VWS V14.00,2013-03-02 04:20:00,
2013-03-01 23:25:00,25.2,19.6,30.12,NNW,346,0.0,7.0,79,0.00,,---,0.01,VWS V14.00,2013-03-02 04:25:00,
2013-03-01 23:30:00,25.3,19.7,30.12,East,89,1.0,2.0,79,0.00,,---,0.01,VWS V14.00,2013-03-02 04:30:00,
2013-03-01 23:35:00,25.3,19.7,30.12,NE,40,0.0,3.0,79,0.00,,---,0.01,VWS V14.00,2013-03-02 04:35:00,
2013-03-01 23:40:00,25.3,19.7,30.12,NNE,24,0.0,4.0,79,0.00,,---,0.01,VWS V14.00,2013-03-02 04:40:00,
2013-03-01 23:45:00,25.4,19.8,30.12,NNW,339,6.0,6.0,79,0.00,,---,0.01,VWS V14.00,2013-03-02 04:45:00,
2013-03-01 23:50:00,25.4,19.5,30.12,North,355,4.0,7.0,78,0.00,,---,0.01,VWS V14.00,2013-03-02 04:50:00,
2013-03-01 23:56:00,25.4,19.5,30.12,NNE,28,0.0,7.0,78,0.00,,---,0.01,VWS V14.00,2013-03-02 04:56:00,